Time;durP1;ratioP1;P1;durP2;ratioP2;P2;SDS_P1;SDS_P2;PMS_P1;PMS_P2;Temp;Humidity;BMP_temperature;BMP_pressure;BME280_temperature;BME280_humidity;BME280_pressure;Samples;Min_cycle;Max_cycle;Signal;HPM_P1;HPM_P2
2022/10/18 00:01:07;;;;;;;3.30;2.70;;;18.10;99.90;;;;;;5094552;28;20469;-73
2022/10/18 00:03:35;;;;;;;5.10;3.73;;;18.10;99.90;;;;;;5094982;28;20437;-73
2022/10/18 00:06:02;;;;;;;4.37;3.67;;;18.10;99.90;;;;;;5094765;28;20442;-73
2022/10/18 00:08:29;;;;;;;5.20;4.00;;;18.10;99.90;;;;;;5094887;28;20439;-73
2022/10/18 00:10:56;;;;;;;6.20;4.53;;;18.10;99.90;;;;;;5094632;28;20457;-73
2022/10/18 00:13:24;;;;;;;7.17;4.40;;;18.10;99.90;;;;;;5094706;28;20487;-73
2022/10/18 00:15:54;;;;;;;4.40;4.10;;;18.10;99.90;;;;;;5093583;28;20441;-73
2022/10/18 00:18:21;;;;;;;4.77;4.27;;;18.00;99.90;;;;;;5093675;28;20436;-73
2022/10/18 00:20:57;;;;;;;5.53;3.83;;;18.10;99.90;;;;;;5094026;28;20469;-72
2022/10/18 00:23:24;;;;;;;5.87;4.00;;;18.10;99.90;;;;;;5094541;28;20433;-72
2022/10/18 00:25:59;;;;;;;6.23;4.07;;;18.10;99.90;;;;;;5094311;28;20429;-72
2022/10/18 00:28:27;;;;;;;5.63;3.10;;;18.10;99.90;;;;;;5094839;28;20431;-72
2022/10/18 00:30:54;;;;;;;11.50;3.37;;;18.10;99.90;;;;;;5094550;28;20476;-72
2022/10/18 00:33:20;;;;;;;4.20;3.50;;;18.10;99.90;;;;;;5093935;28;20455;-72
2022/10/18 00:35:47;;;;;;;6.63;4.63;;;18.00;99.90;;;;;;5094397;28;20950;-72
2022/10/18 00:38:14;;;;;;;6.67;4.07;;;18.00;99.90;;;;;;5094745;28;20443;-72
2022/10/18 00:40:41;;;;;;;5.17;4.67;;;18.00;99.90;;;;;;5093367;28;21033;-71
2022/10/18 00:43:11;;;;;;;7.80;5.00;;;18.00;99.90;;;;;;5093865;28;20453;-71
2022/10/18 00:45:39;;;;;;;4.27;3.90;;;18.00;99.90;;;;;;5091864;28;20420;-70
2022/10/18 00:48:06;;;;;;;3.90;3.60;;;18.00;99.90;;;;;;5091622;28;20799;-70
2022/10/18 00:50:35;;;;;;;7.00;4.50;;;18.00;99.90;;;;;;5091643;28;20456;-70
2022/10/18 00:53:04;;;;;;;5.60;3.83;;;18.00;99.90;;;;;;5093685;28;20448;-71
2022/10/18 00:55:33;;;;;;;4.80;4.30;;;18.00;99.90;;;;;;5094031;28;20482;-71
2022/10/18 00:58:00;;;;;;;6.30;4.83;;;18.00;99.90;;;;;;5094470;28;20444;-71
2022/10/18 01:00:27;;;;;;;6.67;4.67;;;18.00;99.90;;;;;;5093746;28;20473;-72
2022/10/18 01:02:55;;;;;;;5.80;5.10;;;18.00;99.90;;;;;;5093474;28;20451;-72
2022/10/18 01:05:22;;;;;;;9.27;5.00;;;18.00;99.90;;;;;;5098410;28;20427;-73
2022/10/18 01:08:06;;;;;;;5.83;5.27;;;18.00;99.90;;;;;;5096697;28;20456;-73
2022/10/18 01:10:41;;;;;;;8.07;5.50;;;18.00;99.90;;;;;;5094066;28;20464;-73
2022/10/18 01:13:26;;;;;;;5.63;5.13;;;18.00;99.90;;;;;;5093796;28;20449;-73
2022/10/18 01:15:58;;;;;;;5.93;5.33;;;18.00;99.90;;;;;;5093496;28;20433;-73
2022/10/18 01:18:33;;;;;;;7.07;6.37;;;18.00;99.90;;;;;;5092951;28;20445;-73
2022/10/18 01:21:11;;;;;;;8.53;6.53;;;18.00;99.90;;;;;;5093010;28;20490;-73
2022/10/18 01:24:07;;;;;;;5.50;4.40;;;18.00;99.90;;;;;;5093265;28;20425;-73
2022/10/18 01:26:48;;;;;;;5.70;4.30;;;18.00;99.90;;;;;;5063842;28;20437;-73
2022/10/18 01:29:32;;;;;;;5.70;5.17;;;18.00;99.90;;;;;;5096898;28;20464;-73
2022/10/18 01:32:03;;;;;;;7.23;5.63;;;18.00;99.90;;;;;;5096647;28;20436;-73
2022/10/18 01:34:35;;;;;;;7.47;6.77;;;18.00;99.90;;;;;;5096350;28;20460;-73
2022/10/18 01:37:05;;;;;;;6.83;6.13;;;18.00;99.90;;;;;;5097342;28;20418;-73
2022/10/18 01:39:36;;;;;;;7.37;6.67;;;18.00;99.90;;;;;;5097472;28;20459;-73
2022/10/18 01:42:07;;;;;;;7.27;5.90;;;17.90;99.90;;;;;;5097592;28;20455;-73
2022/10/18 01:44:35;;;;;;;6.87;6.27;;;18.00;99.90;;;;;;5097211;28;20429;-73
2022/10/18 01:47:06;;;;;;;8.50;6.20;;;17.90;99.90;;;;;;5097502;28;20508;-73
2022/10/18 01:49:33;;;;;;;9.67;6.90;;;17.90;99.90;;;;;;5097185;28;20460;-72
2022/10/18 01:52:00;;;;;;;7.37;5.73;;;17.90;99.90;;;;;;5097114;28;20452;-72
2022/10/18 01:54:30;;;;;;;10.90;7.33;;;17.90;99.90;;;;;;5094619;28;20492;-71
2022/10/18 01:57:01;;;;;;;7.53;6.47;;;17.90;99.90;;;;;;5095170;28;20433;-71
2022/10/18 01:59:46;;;;;;;7.23;6.50;;;17.90;99.90;;;;;;5094515;28;20465;-71
2022/10/18 02:02:24;;;;;;;7.47;6.77;;;17.90;99.90;;;;;;5094681;28;20440;-71
2022/10/18 02:04:54;;;;;;;8.20;6.67;;;17.90;99.90;;;;;;5095349;28;20436;-71
2022/10/18 02:07:30;;;;;;;6.93;6.33;;;17.90;99.90;;;;;;5095506;28;20436;-71
2022/10/18 02:10:05;;;;;;;10.30;6.93;;;17.90;99.90;;;;;;5094820;28;20465;-71
2022/10/18 02:12:33;;;;;;;6.80;6.10;;;17.90;99.90;;;;;;5095148;28;20443;-70
2022/10/18 02:15:01;;;;;;;11.40;7.63;;;17.90;99.90;;;;;;5093606;28;20487;-70
2022/10/18 02:17:31;;;;;;;8.30;7.37;;;17.80;99.90;;;;;;5094467;28;20457;-70
2022/10/18 02:20:01;;;;;;;11.40;7.57;;;17.90;99.90;;;;;;5093330;28;20473;-70
2022/10/18 02:22:32;;;;;;;7.57;6.77;;;17.90;99.90;;;;;;5092988;28;20436;-70
2022/10/18 02:25:02;;;;;;;7.53;6.70;;;17.80;99.90;;;;;;5094274;28;20468;-70
2022/10/18 02:27:29;;;;;;;9.13;8.23;;;17.80;99.90;;;;;;5093727;28;21022;-70
2022/10/18 02:29:55;;;;;;;10.77;7.73;;;17.80;99.90;;;;;;5092859;28;20476;-70
2022/10/18 02:32:30;;;;;;;7.80;7.10;;;17.80;99.90;;;;;;5093393;28;20453;-70
2022/10/18 02:35:01;;;;;;;9.90;7.73;;;17.80;99.90;;;;;;5093447;28;20499;-70
2022/10/18 02:37:34;;;;;;;11.10;7.90;;;17.80;99.90;;;;;;5093084;28;20433;-70
2022/10/18 02:40:02;;;;;;;11.87;9.93;;;17.80;99.90;;;;;;5093968;28;20471;-70
2022/10/18 02:42:34;;;;;;;8.43;7.57;;;17.80;99.90;;;;;;5087384;28;20425;-71
2022/10/18 02:45:01;;;;;;;8.80;7.90;;;17.80;99.90;;;;;;5075461;28;20429;-72
2022/10/18 02:47:28;;;;;;;9.27;8.37;;;17.80;99.90;;;;;;5075135;28;20449;-72
2022/10/18 02:49:54;;;;;;;11.73;8.90;;;17.80;99.90;;;;;;5074623;28;20987;-72
2022/10/18 02:52:22;;;;;;;8.50;7.60;;;17.80;99.90;;;;;;5075185;28;20464;-72
2022/10/18 02:54:49;;;;;;;8.83;7.47;;;17.80;99.90;;;;;;5074882;28;20539;-71
2022/10/18 02:57:16;;;;;;;8.47;7.63;;;17.80;99.90;;;;;;5074926;28;20445;-72
2022/10/18 02:59:42;;;;;;;9.37;8.33;;;17.80;99.90;;;;;;5074667;28;20469;-72
2022/10/18 03:02:09;;;;;;;11.97;9.17;;;17.80;99.90;;;;;;5074309;28;20948;-72
2022/10/18 03:04:36;;;;;;;9.10;8.20;;;17.80;99.90;;;;;;5074720;28;20445;-72
2022/10/18 03:07:03;;;;;;;10.90;9.03;;;17.80;99.90;;;;;;5074488;28;20940;-72
2022/10/18 03:09:31;;;;;;;9.10;8.20;;;17.80;99.90;;;;;;5074556;28;20480;-72
2022/10/18 03:11:59;;;;;;;11.00;8.67;;;17.80;99.90;;;;;;5074624;28;20466;-72
2022/10/18 03:14:25;;;;;;;7.53;6.83;;;17.80;99.90;;;;;;5074418;28;20507;-72
2022/10/18 03:16:52;;;;;;;8.53;7.73;;;17.70;99.90;;;;;;5074465;28;20810;-72
2022/10/18 03:19:19;;;;;;;9.43;8.30;;;17.70;99.90;;;;;;5074292;28;21011;-72
2022/10/18 03:21:46;;;;;;;9.57;8.53;;;17.70;99.90;;;;;;5074736;28;20448;-72
2022/10/18 03:24:12;;;;;;;8.70;7.73;;;17.70;99.90;;;;;;5074494;28;20472;-72
2022/10/18 03:26:40;;;;;;;9.23;8.37;;;17.80;99.90;;;;;;5074344;28;20453;-73
2022/10/18 03:29:09;;;;;;;8.27;7.47;;;17.70;99.90;;;;;;5074053;28;20453;-73
2022/10/18 03:31:35;;;;;;;9.43;8.53;;;17.70;99.90;;;;;;5073922;28;20903;-73
2022/10/18 03:34:02;;;;;;;14.73;9.10;;;17.80;99.90;;;;;;5074122;28;21031;-72
2022/10/18 03:36:29;;;;;;;10.40;8.80;;;17.70;99.90;;;;;;5073893;28;20457;-72
2022/10/18 03:38:56;;;;;;;12.93;8.50;;;17.80;99.90;;;;;;5074070;28;20536;-72
2022/10/18 03:41:23;;;;;;;8.70;7.90;;;17.80;99.90;;;;;;5073767;28;20479;-73
2022/10/18 03:43:51;;;;;;;10.00;8.67;;;17.80;99.90;;;;;;5073651;28;20911;-73
2022/10/18 03:46:17;;;;;;;10.13;9.13;;;17.70;99.90;;;;;;5073723;28;20441;-74
2022/10/18 03:48:44;;;;;;;11.80;9.40;;;17.70;99.90;;;;;;5073920;28;20445;-74
2022/10/18 03:51:11;;;;;;;8.70;7.90;;;17.70;99.90;;;;;;5075036;28;20491;-74
2022/10/18 03:53:38;;;;;;;10.30;7.93;;;17.70;99.90;;;;;;5074059;28;20861;-74
2022/10/18 03:56:05;;;;;;;8.40;7.33;;;17.70;99.90;;;;;;5074290;28;20490;-74
2022/10/18 03:58:31;;;;;;;10.37;9.27;;;17.80;99.90;;;;;;5074005;28;20844;-75
2022/10/18 04:01:00;;;;;;;9.23;8.20;;;17.70;99.90;;;;;;5074353;28;20460;-75
2022/10/18 04:03:26;;;;;;;7.83;7.03;;;17.70;99.90;;;;;;5074116;28;20461;-75
2022/10/18 04:05:53;;;;;;;12.40;9.30;;;17.80;99.90;;;;;;5077924;28;20822;-75
2022/10/18 04:08:20;;;;;;;11.83;8.03;;;17.80;99.90;;;;;;5075775;28;20444;-76
2022/10/18 04:10:47;;;;;;;11.23;8.43;;;17.70;99.90;;;;;;5076425;28;20884;-75
2022/10/18 04:13:13;;;;;;;9.30;8.30;;;17.70;99.90;;;;;;5074303;28;20465;-75
2022/10/18 04:15:40;;;;;;;11.53;8.83;;;17.80;99.90;;;;;;5074205;28;20477;-75
2022/10/18 04:18:08;;;;;;;11.80;8.00;;;17.80;99.90;;;;;;5073613;28;20831;-75
2022/10/18 04:20:35;;;;;;;7.33;6.30;;;17.80;99.90;;;;;;5074187;28;20477;-75
2022/10/18 04:23:02;;;;;;;8.33;7.53;;;17.80;99.90;;;;;;5074237;28;20459;-75
2022/10/18 04:25:29;;;;;;;13.00;7.90;;;17.80;99.90;;;;;;5074113;28;20452;-76
2022/10/18 04:27:56;;;;;;;11.97;8.90;;;17.80;99.90;;;;;;5074288;28;20461;-75
2022/10/18 04:30:22;;;;;;;10.33;9.23;;;17.80;99.90;;;;;;5077201;28;20547;-75
2022/10/18 04:32:49;;;;;;;11.30;8.67;;;17.80;99.90;;;;;;5074515;28;20789;-75
2022/10/18 04:35:18;;;;;;;17.20;10.37;;;17.80;99.90;;;;;;5075140;28;20481;-76
2022/10/18 04:37:45;;;;;;;13.03;9.90;;;17.80;99.90;;;;;;5075540;28;20444;-75
2022/10/18 04:40:12;;;;;;;10.63;9.20;;;17.80;99.90;;;;;;5074888;28;20484;-76
2022/10/18 04:42:39;;;;;;;10.97;9.00;;;17.80;99.90;;;;;;5076653;28;20437;-75
2022/10/18 04:45:07;;;;;;;11.07;9.20;;;17.80;99.90;;;;;;5079178;28;20433;-76
2022/10/18 04:47:33;;;;;;;11.33;10.03;;;17.80;99.90;;;;;;5079817;28;20948;-76
2022/10/18 04:50:00;;;;;;;12.50;10.70;;;17.80;99.90;;;;;;5081626;28;20469;-76
2022/10/18 04:52:28;;;;;;;13.37;11.40;;;17.80;99.90;;;;;;5082768;28;20460;-76
2022/10/18 04:54:55;;;;;;;19.93;13.80;;;17.80;99.90;;;;;;5082353;28;20485;-76
2022/10/18 04:57:22;;;;;;;13.83;12.30;;;17.80;99.90;;;;;;5080414;28;20540;-75
2022/10/18 04:59:48;;;;;;;19.00;12.10;;;17.80;99.90;;;;;;5079433;28;20461;-75
2022/10/18 05:02:15;;;;;;;13.03;11.43;;;17.80;99.90;;;;;;5080440;28;20456;-75
2022/10/18 05:04:42;;;;;;;16.30;12.80;;;17.80;99.90;;;;;;5082053;28;20447;-75
2022/10/18 05:07:09;;;;;;;22.33;14.10;;;17.80;99.90;;;;;;5082714;28;20451;-75
2022/10/18 05:09:37;;;;;;;14.03;12.10;;;17.80;99.90;;;;;;5080641;28;20526;-75
2022/10/18 05:12:04;;;;;;;17.00;12.00;;;17.80;99.90;;;;;;5079370;28;20452;-75
2022/10/18 05:14:30;;;;;;;17.50;13.40;;;17.80;99.90;;;;;;5077837;28;20469;-74
2022/10/18 05:16:57;;;;;;;13.17;9.40;;;17.80;99.90;;;;;;5077118;28;20852;-75
2022/10/18 05:19:24;;;;;;;17.80;12.20;;;17.70;99.90;;;;;;5078950;28;20473;-74
2022/10/18 05:21:51;;;;;;;14.50;12.93;;;17.80;99.90;;;;;;5077969;28;20535;-75
2022/10/18 05:24:18;;;;;;;15.40;13.10;;;17.80;99.90;;;;;;5077623;28;20455;-75
2022/10/18 05:26:46;;;;;;;19.17;15.20;;;17.70;99.90;;;;;;5076394;28;20453;-75
2022/10/18 05:29:13;;;;;;;17.30;15.43;;;17.80;99.90;;;;;;5076356;28;20537;-75
2022/10/18 05:31:39;;;;;;;11.63;10.30;;;17.80;99.90;;;;;;5077034;28;20487;-75
2022/10/18 05:34:06;;;;;;;13.63;11.97;;;17.80;99.90;;;;;;5076759;28;20457;-76
2022/10/18 05:36:33;;;;;;;15.60;13.97;;;17.70;99.90;;;;;;5076929;28;20488;-75
2022/10/18 05:38:59;;;;;;;16.13;14.40;;;17.80;99.90;;;;;;5077305;28;20441;-75
2022/10/18 05:41:26;;;;;;;14.47;13.07;;;17.80;99.90;;;;;;5077766;28;20845;-76
2022/10/18 05:43:54;;;;;;;17.00;14.03;;;17.80;99.90;;;;;;5078942;28;20455;-76
2022/10/18 05:46:21;;;;;;;13.90;12.03;;;17.80;99.90;;;;;;5079546;28;20452;-76
2022/10/18 05:48:50;;;;;;;14.50;12.83;;;17.70;99.90;;;;;;5080221;28;20461;-76
2022/10/18 05:51:17;;;;;;;13.13;11.77;;;17.80;99.90;;;;;;5081151;28;20441;-76
2022/10/18 05:53:44;;;;;;;15.77;13.40;;;17.70;99.90;;;;;;5083740;28;20456;-75
2022/10/18 05:56:11;;;;;;;14.87;12.40;;;17.70;99.90;;;;;;5083479;28;20999;-75
2022/10/18 05:58:38;;;;;;;14.00;12.57;;;17.70;99.90;;;;;;5084455;28;20471;-75
2022/10/18 06:01:07;;;;;;;15.07;13.50;;;17.70;99.90;;;;;;5084752;28;20480;-76
2022/10/18 06:03:34;;;;;;;14.40;12.93;;;17.70;99.90;;;;;;5084553;28;20445;-76
2022/10/18 06:06:02;;;;;;;18.10;14.10;;;17.70;99.90;;;;;;5091467;28;20425;-78
2022/10/18 06:08:29;;;;;;;11.90;10.80;;;17.70;99.90;;;;;;5094651;28;20459;-76
2022/10/18 06:10:56;;;;;;;10.53;9.53;;;17.70;99.90;;;;;;5094169;28;20548;-76
2022/10/18 06:13:23;;;;;;;15.93;13.33;;;17.70;99.90;;;;;;5095641;28;20456;-76
2022/10/18 06:15:50;;;;;;;17.23;15.47;;;17.70;99.90;;;;;;5095856;28;20437;-73
2022/10/18 06:18:18;;;;;;;20.23;13.93;;;17.70;99.90;;;;;;5096130;28;20448;-73
2022/10/18 06:20:45;;;;;;;18.53;14.97;;;17.70;99.90;;;;;;5095538;28;20987;-73
2022/10/18 06:23:12;;;;;;;16.13;14.53;;;17.70;99.90;;;;;;5095072;28;20445;-73
2022/10/18 06:25:39;;;;;;;15.70;14.10;;;17.70;99.90;;;;;;5095966;28;20451;-73
2022/10/18 06:28:06;;;;;;;14.40;12.90;;;17.70;99.90;;;;;;5096394;28;20439;-73
2022/10/18 06:30:33;;;;;;;13.97;11.27;;;17.70;99.90;;;;;;5096148;28;20852;-73
2022/10/18 06:33:00;;;;;;;18.50;16.57;;;17.70;99.90;;;;;;5095620;28;20441;-73
2022/10/18 06:35:28;;;;;;;15.97;14.37;;;17.70;99.90;;;;;;5096074;28;20485;-73
2022/10/18 06:37:56;;;;;;;21.70;15.87;;;17.70;99.90;;;;;;5095834;28;20445;-73
2022/10/18 06:40:23;;;;;;;17.40;15.50;;;17.70;99.90;;;;;;5095845;28;20461;-73
2022/10/18 06:42:49;;;;;;;20.50;15.77;;;17.70;99.90;;;;;;5097113;28;20426;-73
2022/10/18 06:45:17;;;;;;;20.33;16.27;;;17.70;99.90;;;;;;5096867;28;20505;-73
2022/10/18 06:47:44;;;;;;;16.73;13.87;;;17.70;99.90;;;;;;5097155;28;20441;-73
2022/10/18 06:50:11;;;;;;;16.63;14.93;;;17.70;99.90;;;;;;5096445;28;20465;-73
2022/10/18 06:52:40;;;;;;;16.10;14.40;;;17.70;99.90;;;;;;5096589;28;20425;-73
2022/10/18 06:55:08;;;;;;;14.10;12.80;;;17.70;99.90;;;;;;5095605;28;20449;-74
2022/10/18 06:57:35;;;;;;;16.03;14.40;;;17.70;99.90;;;;;;5095324;28;20433;-73
2022/10/18 07:00:03;;;;;;;17.50;15.67;;;17.70;99.90;;;;;;5095745;28;20495;-73
2022/10/18 07:02:29;;;;;;;23.90;18.30;;;17.70;99.90;;;;;;5095063;28;20448;-73
2022/10/18 07:04:56;;;;;;;18.60;16.70;;;17.70;99.90;;;;;;5087422;28;20430;-77
2022/10/18 07:07:23;;;;;;;12.60;11.30;;;17.70;99.90;;;;;;5085767;28;20429;-77
2022/10/18 07:09:51;;;;;;;19.03;17.00;;;17.80;99.90;;;;;;5085868;28;20473;-77
2022/10/18 07:12:18;;;;;;;24.70;20.40;;;17.80;99.90;;;;;;5085061;28;20453;-77
2022/10/18 07:14:46;;;;;;;18.70;16.73;;;17.80;99.90;;;;;;5085120;28;20433;-77
2022/10/18 07:17:12;;;;;;;22.03;19.37;;;17.80;99.90;;;;;;5084588;28;20480;-78
2022/10/18 07:19:39;;;;;;;23.37;20.20;;;17.80;99.90;;;;;;5084574;28;20465;-77
2022/10/18 07:22:06;;;;;;;23.33;20.67;;;17.90;99.90;;;;;;5083843;28;20944;-77
2022/10/18 07:24:32;;;;;;;22.17;19.70;;;17.90;99.90;;;;;;5078486;28;20440;-77
2022/10/18 07:27:01;;;;;;;26.27;18.70;;;17.90;99.90;;;;;;5080470;28;20448;-77
2022/10/18 07:29:27;;;;;;;22.47;18.80;;;17.90;99.90;;;;;;5082867;28;20457;-75
2022/10/18 07:31:54;;;;;;;20.60;18.37;;;18.00;99.90;;;;;;5079596;28;20986;-73
2022/10/18 07:34:22;;;;;;;21.20;18.57;;;18.10;99.90;;;;;;5079969;28;20449;-75
2022/10/18 07:36:48;;;;;;;23.03;17.93;;;18.10;99.90;;;;;;5088036;28;20478;-75
2022/10/18 07:39:15;;;;;;;16.97;14.80;;;18.10;99.90;;;;;;5094479;28;20476;-75
2022/10/18 07:41:42;;;;;;;25.97;21.60;;;18.20;99.90;;;;;;5094216;28;20452;-75
2022/10/18 07:44:10;;;;;;;27.27;21.40;;;18.20;99.90;;;;;;5087596;28;20444;-75
2022/10/18 07:46:37;;;;;;;25.37;21.00;;;18.20;99.90;;;;;;5081244;28;20807;-75
2022/10/18 07:49:04;;;;;;;35.63;24.17;;;18.20;99.90;;;;;;5081429;28;20445;-75
2022/10/18 07:51:31;;;;;;;26.17;21.53;;;18.30;99.90;;;;;;5079537;28;20430;-75
2022/10/18 07:53:58;;;;;;;29.00;22.70;;;18.20;99.90;;;;;;5078761;28;20461;-79
2022/10/18 07:56:25;;;;;;;26.50;22.50;;;18.30;99.90;;;;;;5074517;28;20512;-79
2022/10/18 07:58:55;;;;;;;31.50;26.33;;;18.20;99.90;;;;;;5074757;28;20448;-79
2022/10/18 08:01:25;;;;;;;28.00;22.67;;;18.20;99.90;;;;;;5074220;28;20445;-78
2022/10/18 08:03:52;;;;;;;34.97;28.20;;;18.20;99.90;;;;;;5074740;28;20441;-79
2022/10/18 08:06:21;;;;;;;24.43;21.20;;;18.30;99.90;;;;;;5073846;28;20441;-76
2022/10/18 08:08:48;;;;;;;33.17;26.23;;;18.30;99.90;;;;;;5077966;28;20425;-74
2022/10/18 08:11:17;;;;;;;27.10;24.17;;;18.40;99.90;;;;;;5093271;28;20441;-75
2022/10/18 08:13:45;;;;;;;34.33;25.73;;;18.40;99.90;;;;;;5094791;28;20437;-76
2022/10/18 08:16:14;;;;;;;33.43;27.70;;;18.50;99.90;;;;;;5095579;28;20477;-75
2022/10/18 08:18:42;;;;;;;29.03;24.27;;;18.60;99.90;;;;;;5095658;28;20452;-74
2022/10/18 08:21:12;;;;;;;34.37;26.00;;;18.70;99.90;;;;;;5094936;28;20468;-74
2022/10/18 08:23:39;;;;;;;36.10;26.73;;;18.70;99.90;;;;;;5096060;28;20433;-74
2022/10/18 08:26:09;;;;;;;34.53;27.83;;;18.70;99.90;;;;;;5076343;28;20460;-70
2022/10/18 08:28:36;;;;;;;29.77;24.53;;;18.70;99.90;;;;;;5087494;28;20425;-73
2022/10/18 08:31:03;;;;;;;35.20;27.43;;;18.70;99.90;;;;;;5095811;28;20469;-74
2022/10/18 08:33:30;;;;;;;33.63;26.00;;;18.70;99.90;;;;;;5096410;28;20409;-75
2022/10/18 08:36:00;;;;;;;29.90;25.57;;;18.80;99.90;;;;;;5097238;28;20480;-74
2022/10/18 08:38:30;;;;;;;36.63;29.00;;;18.80;99.90;;;;;;5100416;28;20444;-74
2022/10/18 08:40:58;;;;;;;35.50;28.13;;;18.80;99.90;;;;;;5099307;28;20472;-75
2022/10/18 08:43:34;;;;;;;35.73;27.87;;;18.90;99.90;;;;;;5099086;28;20439;-74
2022/10/18 08:46:01;;;;;;;37.13;28.80;;;18.90;99.90;;;;;;5100045;28;20432;-75
2022/10/18 08:48:35;;;;;;;44.23;30.33;;;19.00;99.90;;;;;;5099964;28;20433;-74
2022/10/18 08:51:04;;;;;;;38.30;29.77;;;19.10;99.90;;;;;;5099809;28;20496;-74
2022/10/18 08:53:38;;;;;;;39.30;34.90;;;19.10;99.90;;;;;;5099674;28;20452;-74
2022/10/18 08:56:10;;;;;;;39.83;32.27;;;19.20;99.90;;;;;;5099604;28;20465;-75
2022/10/18 08:58:37;;;;;;;41.03;36.60;;;19.30;99.90;;;;;;5099970;28;20437;-74
2022/10/18 09:01:16;;;;;;;43.53;35.30;;;19.40;99.90;;;;;;5099620;28;20457;-74
2022/10/18 09:04:17;;;;;;;69.83;53.90;;;19.40;99.90;;;;;;5099909;28;20436;-74
2022/10/18 09:06:54;;;;;;;89.07;65.93;;;19.60;99.90;;;;;;5090047;28;20421;-74
2022/10/18 09:09:34;;;;;;;60.13;45.63;;;19.70;99.90;;;;;;5083536;28;20473;-74
2022/10/18 09:12:16;;;;;;;54.63;44.50;;;19.90;99.90;;;;;;5094607;28;20436;-74
2022/10/18 09:15:03;;;;;;;48.30;41.63;;;20.00;99.90;;;;;;5096406;28;20425;-74
2022/10/18 09:17:42;;;;;;;44.97;38.03;;;20.20;99.90;;;;;;5098618;28;20468;-76
2022/10/18 09:20:25;;;;;;;40.77;35.23;;;20.30;99.90;;;;;;5100108;28;20456;-74
2022/10/18 09:22:55;;;;;;;41.43;34.63;;;20.30;99.40;;;;;;5097939;28;20459;-75
2022/10/18 09:25:25;;;;;;;48.47;37.10;;;20.20;99.10;;;;;;5099997;28;20425;-75
2022/10/18 09:27:54;;;;;;;48.63;37.60;;;20.20;98.80;;;;;;5098042;28;20523;-75
2022/10/18 09:30:36;;;;;;;51.77;43.23;;;20.10;98.80;;;;;;5097946;28;20479;-75
2022/10/18 09:33:11;;;;;;;48.60;41.30;;;20.20;98.80;;;;;;5097399;28;20429;-75
2022/10/18 09:35:43;;;;;;;48.70;38.93;;;20.10;98.80;;;;;;5098851;28;20429;-75
2022/10/18 09:38:14;;;;;;;43.67;36.50;;;20.00;98.80;;;;;;5099201;28;20468;-75
2022/10/18 09:40:51;;;;;;;41.50;34.93;;;19.90;98.80;;;;;;5098950;28;20480;-75
2022/10/18 09:43:22;;;;;;;63.17;45.73;;;20.00;98.80;;;;;;5098564;28;20429;-75
2022/10/18 09:45:52;;;;;;;66.43;47.67;;;20.00;98.70;;;;;;5098808;28;20406;-75
2022/10/18 09:48:23;;;;;;;62.30;47.07;;;20.10;98.80;;;;;;5098195;28;20440;-75
2022/10/18 09:50:55;;;;;;;61.50;44.43;;;20.10;98.80;;;;;;5098669;28;20453;-75
2022/10/18 09:53:32;;;;;;;56.00;43.43;;;20.10;98.70;;;;;;5099404;28;20434;-75
2022/10/18 09:56:03;;;;;;;48.03;39.23;;;20.00;98.60;;;;;;5099722;28;20425;-75
2022/10/18 09:58:43;;;;;;;52.90;38.77;;;20.00;98.50;;;;;;5099125;28;20402;-75
2022/10/18 10:01:11;;;;;;;55.50;43.50;;;20.00;98.60;;;;;;5098471;28;20490;-75
2022/10/18 10:03:39;;;;;;;52.30;41.30;;;19.90;98.70;;;;;;5098164;28;20425;-75
2022/10/18 10:06:22;;;;;;;52.43;40.30;;;19.90;98.80;;;;;;5100563;28;20429;-75
2022/10/18 10:08:55;;;;;;;46.60;38.30;;;19.80;98.80;;;;;;5097817;28;20476;-76
2022/10/18 10:11:30;;;;;;;49.80;32.77;;;19.80;98.90;;;;;;5098756;28;20440;-74
2022/10/18 10:13:59;;;;;;;46.07;36.40;;;19.70;99.00;;;;;;5099132;28;20432;-75
2022/10/18 10:16:27;;;;;;;46.50;35.00;;;19.70;98.90;;;;;;5099701;28;21031;-75
2022/10/18 10:18:54;;;;;;;49.87;37.80;;;19.60;99.00;;;;;;5097015;28;20437;-74
2022/10/18 10:21:22;;;;;;;42.43;33.20;;;19.60;99.10;;;;;;5097348;28;20437;-74
2022/10/18 10:23:55;;;;;;;45.53;33.20;;;19.60;99.30;;;;;;5098220;28;20437;-75
2022/10/18 10:26:25;;;;;;;42.50;34.10;;;19.60;99.20;;;;;;5097973;28;20452;-74
2022/10/18 10:28:52;;;;;;;44.90;33.47;;;19.60;99.10;;;;;;5097624;28;20962;-74
2022/10/18 10:31:27;;;;;;;38.17;31.00;;;19.60;99.00;;;;;;5097480;28;20428;-74
2022/10/18 10:34:02;;;;;;;44.77;35.20;;;19.60;99.00;;;;;;5098441;28;20439;-75
2022/10/18 10:36:30;;;;;;;45.13;33.10;;;19.60;98.90;;;;;;5096712;28;20436;-74
2022/10/18 10:39:07;;;;;;;45.93;32.50;;;19.60;98.90;;;;;;5096808;28;20445;-74
2022/10/18 10:41:34;;;;;;;41.17;33.03;;;19.60;98.90;;;;;;5097786;28;20453;-74
2022/10/18 10:44:04;;;;;;;44.20;34.03;;;19.60;99.30;;;;;;5096453;28;20531;-75
2022/10/18 10:46:35;;;;;;;38.17;29.80;;;19.60;98.80;;;;;;5098897;28;20447;-74
2022/10/18 10:49:03;;;;;;;37.37;28.50;;;19.60;98.90;;;;;;5099092;28;20428;-75
2022/10/18 10:51:35;;;;;;;36.20;26.90;;;19.60;98.80;;;;;;5098533;28;20437;-76
2022/10/18 10:54:07;;;;;;;37.90;29.20;;;19.60;98.90;;;;;;5098852;28;20538;-76
2022/10/18 10:56:37;;;;;;;36.13;27.97;;;19.60;98.80;;;;;;5100109;28;20428;-78
2022/10/18 10:59:13;;;;;;;36.17;26.80;;;19.60;98.80;;;;;;5099147;28;20417;-77
2022/10/18 11:01:40;;;;;;;37.40;30.07;;;19.60;98.80;;;;;;5099859;28;20427;-77
2022/10/18 11:04:23;;;;;;;39.53;31.27;;;19.60;98.80;;;;;;5100022;28;20454;-80
2022/10/18 11:07:04;;;;;;;41.03;30.60;;;19.70;98.90;;;;;;5099283;28;20425;-76
2022/10/18 11:09:41;;;;;;;41.63;31.53;;;19.80;98.90;;;;;;5099545;28;20456;-76
2022/10/18 11:12:23;;;;;;;39.80;29.30;;;19.90;98.70;;;;;;5099149;28;20476;-76
2022/10/18 11:14:57;;;;;;;40.63;30.17;;;20.00;98.40;;;;;;5098785;28;20485;-76
2022/10/18 11:17:29;;;;;;;30.70;24.47;;;20.20;98.10;;;;;;5099058;28;20553;-77
2022/10/18 11:20:09;;;;;;;35.20;27.13;;;20.40;97.70;;;;;;5099495;28;20445;-81
2022/10/18 11:22:42;;;;;;;38.90;27.67;;;20.50;96.70;;;;;;5099596;28;20413;-76
2022/10/18 11:25:15;;;;;;;36.30;28.43;;;20.60;96.30;;;;;;5099749;28;20425;-80
2022/10/18 11:27:46;;;;;;;32.67;26.07;;;20.70;96.00;;;;;;5099893;28;20455;-77
2022/10/18 11:30:26;;;;;;;34.03;27.57;;;20.80;95.60;;;;;;5099458;28;20471;-77
2022/10/18 11:33:05;;;;;;;34.07;27.63;;;20.90;95.70;;;;;;5099909;28;20484;-79
2022/10/18 11:35:57;;;;;;;30.67;25.90;;;21.60;95.20;;;;;;5099434;28;20441;-77
2022/10/18 11:38:42;;;;;;;30.13;25.53;;;22.40;92.40;;;;;;5099302;28;20469;-78
2022/10/18 11:41:30;;;;;;;27.90;24.03;;;23.50;90.80;;;;;;5099043;28;20467;-83
2022/10/18 11:43:59;;;;;;;25.00;21.47;;;24.50;85.80;;;;;;5099316;28;20485;-78
2022/10/18 11:46:41;;;;;;;21.10;18.90;;;25.50;79.00;;;;;;5097650;28;20453;-77
2022/10/18 11:49:17;;;;;;;18.67;16.73;;;26.40;74.10;;;;;;5094660;28;20426;-76
2022/10/18 11:51:57;;;;;;;20.90;18.70;;;27.30;66.70;;;;;;5097748;28;20443;-77
2022/10/18 11:54:48;;;;;;;20.70;17.73;;;28.00;60.40;;;;;;5094542;28;20459;-76
2022/10/18 11:57:29;;;;;;;20.83;18.57;;;28.50;58.60;;;;;;5095550;28;20975;-76
2022/10/18 12:00:08;;;;;;;19.23;16.10;;;29.30;55.70;;;;;;5093968;28;20472;-76
2022/10/18 12:02:54;;;;;;;23.60;21.30;;;30.10;53.30;;;;;;5097320;28;20411;-75
2022/10/18 12:05:21;;;;;;;22.83;20.57;;;30.50;52.10;;;;;;5097393;28;20527;-75
2022/10/18 12:07:56;;;;;;;21.67;19.40;;;30.80;50.60;;;;;;5097382;28;20450;-75
2022/10/18 12:10:24;;;;;;;21.63;19.47;;;31.30;49.30;;;;;;5097794;28;20495;-75
2022/10/18 12:12:57;;;;;;;19.47;17.57;;;31.60;48.10;;;;;;5098446;28;20516;-76
2022/10/18 12:15:27;;;;;;;21.00;18.90;;;31.20;47.10;;;;;;5097746;28;20427;-75
2022/10/18 12:17:58;;;;;;;22.40;20.00;;;30.70;48.20;;;;;;5096820;28;20494;-73
2022/10/18 12:20:29;;;;;;;21.70;19.50;;;30.00;49.50;;;;;;5081219;28;20528;-74
2022/10/18 12:23:02;;;;;;;21.83;19.53;;;29.30;51.00;;;;;;5088514;28;20514;-75
2022/10/18 12:25:32;;;;;;;22.83;20.43;;;28.70;52.50;;;;;;5094791;28;20439;-75
2022/10/18 12:28:06;;;;;;;22.53;20.13;;;28.40;53.70;;;;;;5097718;28;20441;-77
2022/10/18 12:30:42;;;;;;;20.83;18.73;;;28.20;53.90;;;;;;5097824;28;20480;-77
2022/10/18 12:33:11;;;;;;;23.03;20.50;;;27.70;54.50;;;;;;5097856;28;20420;-76
2022/10/18 12:35:49;;;;;;;24.53;19.67;;;27.10;55.70;;;;;;5097668;28;20492;-77
2022/10/18 12:38:23;;;;;;;22.90;17.70;;;26.50;57.10;;;;;;5094805;28;20463;-76
2022/10/18 12:40:52;;;;;;;18.60;16.60;;;26.20;59.30;;;;;;5093553;28;20472;-76
2022/10/18 12:43:24;;;;;;;22.87;20.10;;;26.60;60.40;;;;;;5097732;28;20509;-76
2022/10/18 12:45:54;;;;;;;19.90;17.80;;;27.30;58.60;;;;;;5098291;28;20437;-77
2022/10/18 12:48:41;;;;;;;18.00;16.10;;;28.20;56.10;;;;;;5097516;28;20429;-78